Wetterdaten: aktuell Samstag, 01.04.2023 11:45
Datum Zeit Temperatur Feuchte A. Luftdruck Regen Wind Richtung Richtung Taupunkt Windchill Windben
01.04.2023 11:45 9,6 C 78 % 1004,8 hPa 0,0 l/m 2,8 km/h (1 Bft) O-NO 65 6,0 C 9,6 C 6,4 km/h (2 Bft)
01.04.2023 11:40 9,6 C 80 % 1004,9 hPa 0,0 l/m 1,6 km/h (1 Bft) O-NO 70 6,3 C 9,6 C 4,8 km/h (1 Bft)
01.04.2023 11:35 9,5 C 78 % 1005,0 hPa 0,0 l/m 2,7 km/h (1 Bft) N-NW 337 5,9 C 9,5 C 9,7 km/h (2 Bft)
01.04.2023 11:30 9,5 C 83 % 1005,0 hPa 0,0 l/m 3,4 km/h (1 Bft) S-SO 154 6,8 C 9,5 C 8,0 km/h (2 Bft)
01.04.2023 11:25 9,3 C 79 % 1005,0 hPa 0,0 l/m 4,3 km/h (1 Bft) O-NO 67 5,8 C 9,3 C 11,3 km/h (2 Bft)
01.04.2023 11:20 9,2 C 82 % 1005,0 hPa 0,0 l/m 2,5 km/h (1 Bft) N-NO 14 6,3 C 9,2 C 8,0 km/h (2 Bft)
01.04.2023 11:15 9,1 C 83 % 1005,0 hPa 0,0 l/m 1,8 km/h (1 Bft) O-SO 114 6,4 C 9,1 C 3,2 km/h (1 Bft)
01.04.2023 11:10 8,9 C 82 % 1005,0 hPa 0,0 l/m 2,8 km/h (1 Bft) N-NW 333 6,0 C 8,9 C 9,7 km/h (2 Bft)
01.04.2023 11:05 8,8 C 83 % 1005,1 hPa 0,0 l/m 1,9 km/h (1 Bft) NW 317 6,1 C 8,8 C 9,7 km/h (2 Bft)
01.04.2023 11:00 8,9 C 82 % 1005,2 hPa 0,0 l/m 3,8 km/h (1 Bft) N-NO 29 6,0 C 8,9 C 9,7 km/h (2 Bft)
01.04.2023 10:55 9,1 C 82 % 1005,2 hPa 0,0 l/m 2,7 km/h (1 Bft) N-NO 26 6,2 C 9,1 C 4,8 km/h (1 Bft)
01.04.2023 10:50 9,0 C 81 % 1005,1 hPa 0,0 l/m 2,1 km/h (1 Bft) O-SO 104 5,9 C 9,0 C 6,4 km/h (2 Bft)
01.04.2023 10:45 8,8 C 83 % 1005,0 hPa 0,0 l/m 2,2 km/h (1 Bft) NW 311 6,1 C 8,8 C 6,4 km/h (2 Bft)
01.04.2023 10:40 8,7 C 84 % 1005,1 hPa 0,0 l/m 1,9 km/h (1 Bft) O-NO 66 6,2 C 8,7 C 4,8 km/h (1 Bft)
01.04.2023 10:35 8,6 C 83 % 1005,2 hPa 0,0 l/m 2,7 km/h (1 Bft) O 80 5,9 C 8,6 C 14,5 km/h (3 Bft)
01.04.2023 10:30 8,8 C 82 % 1005,1 hPa 0,0 l/m 2,5 km/h (1 Bft) SW 216 5,9 C 8,8 C 6,4 km/h (2 Bft)
01.04.2023 10:25 8,8 C 81 % 1005,2 hPa 0,0 l/m 4,0 km/h (1 Bft) N 354 5,7 C 8,8 C 9,7 km/h (2 Bft)
01.04.2023 10:20 8,8 C 81 % 1005,2 hPa 0,0 l/m 3,5 km/h (1 Bft) W-NW 293 5,7 C 8,8 C 11,3 km/h (2 Bft)
01.04.2023 10:15 8,7 C 81 % 1005,1 hPa 0,0 l/m 3,1 km/h (1 Bft) O 95 5,6 C 8,7 C 6,4 km/h (2 Bft)
01.04.2023 10:10 8,7 C 82 % 1005,0 hPa 0,0 l/m 2,8 km/h (1 Bft) NO 44 5,8 C 8,7 C 12,9 km/h (3 Bft)
01.04.2023 10:05 8,6 C 84 % 1005,0 hPa 0,0 l/m 2,3 km/h (1 Bft) N-NO 16 6,1 C 8,6 C 8,0 km/h (2 Bft)
01.04.2023 10:00 8,4 C 83 % 1005,3 hPa 0,0 l/m 4,1 km/h (1 Bft) NO 52 5,7 C 8,4 C 17,7 km/h (3 Bft)
01.04.2023 09:55 8,4 C 82 % 1005,0 hPa 0,0 l/m 3,5 km/h (1 Bft) W-SW 244 5,5 C 8,4 C 8,0 km/h (2 Bft)
01.04.2023 09:50 8,3 C 84 % 1005,2 hPa 0,0 l/m 3,0 km/h (1 Bft) NO 54 5,8 C 8,3 C 8,0 km/h (2 Bft)
01.04.2023 09:45 8,3 C 84 % 1005,0 hPa 0,0 l/m 3,4 km/h (1 Bft) N-NO 33 5,8 C 8,3 C 9,7 km/h (2 Bft)
01.04.2023 09:40 8,3 C 85 % 1005,0 hPa 0,0 l/m 1,1 km/h (1 Bft) N-NO 22 5,9 C 8,3 C 4,8 km/h (1 Bft)
01.04.2023 09:35 8,3 C 85 % 1004,9 hPa 0,0 l/m 2,5 km/h (1 Bft) N-NO 19 5,9 C 8,3 C 6,4 km/h (2 Bft)
01.04.2023 09:30 8,3 C 84 % 1005,2 hPa 0,0 l/m 3,2 km/h (1 Bft) N-NW 345 5,8 C 8,3 C 6,4 km/h (2 Bft)
01.04.2023 09:25 8,2 C 84 % 1005,1 hPa 0,0 l/m 2,8 km/h (1 Bft) S 181 5,7 C 8,2 C 11,3 km/h (2 Bft)
01.04.2023 09:20 8,2 C 84 % 1005,0 hPa 0,0 l/m 4,1 km/h (1 Bft) O-NO 68 5,7 C 8,2 C 8,0 km/h (2 Bft)
01.04.2023 09:15 8,1 C 86 % 1005,0 hPa 0,0 l/m 2,3 km/h (1 Bft) N-NO 18 5,9 C 8,1 C 8,0 km/h (2 Bft)
01.04.2023 09:10 8,0 C 87 % 1005,0 hPa 0,0 l/m 2,0 km/h (1 Bft) NO 54 6,0 C 8,0 C 8,0 km/h (2 Bft)
01.04.2023 09:05 7,9 C 87 % 1005,0 hPa 0,0 l/m 1,8 km/h (1 Bft) NO 41 5,9 C 7,9 C 4,8 km/h (1 Bft)
01.04.2023 09:00 7,9 C 87 % 1005,0 hPa 0,0 l/m 1,9 km/h (1 Bft) O-NO 72 5,9 C 7,9 C 4,8 km/h (1 Bft)
01.04.2023 08:55 7,9 C 87 % 1005,0 hPa 0,0 l/m 3,6 km/h (1 Bft) N-NO 29 5,9 C 7,9 C 12,9 km/h (3 Bft)
01.04.2023 08:50 7,8 C 87 % 1005,0 hPa 0,0 l/m 0,9 km/h (0 Bft) N-NW 330 5,8 C 7,8 C 4,8 km/h (1 Bft)
01.04.2023 08:45 7,8 C 87 % 1005,1 hPa 0,0 l/m 3,1 km/h (1 Bft) NO 50 5,8 C 7,8 C 6,4 km/h (2 Bft)
01.04.2023 08:40 7,7 C 88 % 1005,0 hPa 0,0 l/m 4,2 km/h (1 Bft) NO 54 5,8 C 7,7 C 12,9 km/h (3 Bft)
01.04.2023 08:35 7,7 C 88 % 1005,1 hPa 0,0 l/m 3,3 km/h (1 Bft) NO 35 5,8 C 7,7 C 14,5 km/h (3 Bft)
01.04.2023 08:30 7,6 C 88 % 1005,2 hPa 0,0 l/m 1,8 km/h (1 Bft) N-NO 33 5,7 C 7,6 C 6,4 km/h (2 Bft)
01.04.2023 08:25 7,6 C 89 % 1005,1 hPa 0,0 l/m 1,9 km/h (1 Bft) S-SO 147 5,9 C 7,6 C 4,8 km/h (1 Bft)
01.04.2023 08:20 7,5 C 88 % 1005,0 hPa 0,0 l/m 2,1 km/h (1 Bft) O 79 5,6 C 7,5 C 9,7 km/h (2 Bft)
01.04.2023 08:15 7,4 C 89 % 1005,1 hPa 0,0 l/m 1,3 km/h (1 Bft) O-SO 114 5,7 C 7,4 C 6,4 km/h (2 Bft)
01.04.2023 08:10 7,4 C 89 % 1004,9 hPa 0,0 l/m 1,4 km/h (1 Bft) O-NO 78 5,7 C 7,4 C 3,2 km/h (1 Bft)
01.04.2023 08:05 7,4 C 89 % 1005,0 hPa 0,0 l/m 2,2 km/h (1 Bft) N 354 5,7 C 7,4 C 12,9 km/h (3 Bft)
01.04.2023 08:00 7,3 C 89 % 1005,0 hPa 0,0 l/m 3,2 km/h (1 Bft) NO 48 5,6 C 7,3 C 11,3 km/h (2 Bft)
01.04.2023 07:55 7,3 C 89 % 1005,0 hPa 0,0 l/m 3,3 km/h (1 Bft) NW 319 5,6 C 7,3 C 6,4 km/h (2 Bft)
01.04.2023 07:50 7,3 C 90 % 1005,0 hPa 0,0 l/m 2,9 km/h (1 Bft) O 90 5,8 C 7,3 C 11,3 km/h (2 Bft)
01.04.2023 07:45 7,2 C 90 % 1004,8 hPa 0,0 l/m 1,4 km/h (1 Bft) O-NO 70 5,7 C 7,2 C 4,8 km/h (1 Bft)
01.04.2023 07:40 7,2 C 90 % 1004,8 hPa 0,0 l/m 2,1 km/h (1 Bft) O-NO 68 5,7 C 7,2 C 6,4 km/h (2 Bft)
01.04.2023 07:35 7,3 C 90 % 1004,8 hPa 0,0 l/m 2,3 km/h (1 Bft) SW 233 5,8 C 7,3 C 9,7 km/h (2 Bft)
01.04.2023 07:30 7,3 C 90 % 1004,8 hPa 0,0 l/m 0,3 km/h (0 Bft) SO 128 5,8 C 7,3 C 3,2 km/h (1 Bft)
01.04.2023 07:25 7,3 C 90 % 1004,8 hPa 0,0 l/m 1,2 km/h (1 Bft) SO 128 5,8 C 7,3 C 3,2 km/h (1 Bft)
01.04.2023 07:20 7,3 C 90 % 1004,7 hPa 0,0 l/m 2,3 km/h (1 Bft) O 100 5,8 C 7,3 C 4,8 km/h (1 Bft)
01.04.2023 07:15 7,4 C 90 % 1004,6 hPa 0,0 l/m 0,9 km/h (0 Bft) O 87 5,9 C 7,4 C 4,8 km/h (1 Bft)
01.04.2023 07:10 7,4 C 89 % 1004,5 hPa 0,0 l/m 1,1 km/h (1 Bft) O 100 5,7 C 7,4 C 8,0 km/h (2 Bft)
01.04.2023 07:05 7,5 C 90 % 1004,5 hPa 0,0 l/m 0,0 km/h (0 Bft) O-SO 108 6,0 C 7,5 C 0,0 km/h (0 Bft)
01.04.2023 07:00 7,5 C 89 % 1004,6 hPa 0,0 l/m 1,1 km/h (1 Bft) O-NO 60 5,8 C 7,5 C 6,4 km/h (2 Bft)
01.04.2023 06:55 7,5 C 89 % 1004,6 hPa 0,0 l/m 1,6 km/h (1 Bft) O-NO 61 5,8 C 7,5 C 4,8 km/h (1 Bft)
01.04.2023 06:50 7,5 C 89 % 1004,5 hPa 0,0 l/m 1,3 km/h (1 Bft) NO 43 5,8 C 7,5 C 4,8 km/h (1 Bft)
01.04.2023 06:45 7,4 C 89 % 1004,8 hPa 0,0 l/m 3,6 km/h (1 Bft) O-SO 110 5,7 C 7,4 C 9,7 km/h (2 Bft)
01.04.2023 06:40 7,4 C 89 % 1004,6 hPa 0,0 l/m 2,3 km/h (1 Bft) O-SO 119 5,7 C 7,4 C 4,8 km/h (1 Bft)
01.04.2023 06:35 7,4 C 89 % 1004,4 hPa 0,0 l/m 2,1 km/h (1 Bft) N-NO 12 5,7 C 7,4 C 4,8 km/h (1 Bft)
01.04.2023 06:30 7,4 C 90 % 1004,5 hPa 0,0 l/m 2,3 km/h (1 Bft) SO 127 5,9 C 7,4 C 6,4 km/h (2 Bft)
01.04.2023 06:25 7,4 C 90 % 1004,4 hPa 0,0 l/m 0,4 km/h (0 Bft) O-NO 69 5,9 C 7,4 C 4,8 km/h (1 Bft)
01.04.2023 06:20 7,4 C 90 % 1004,3 hPa 0,0 l/m 2,8 km/h (1 Bft) O-NO 75 5,9 C 7,4 C 6,4 km/h (2 Bft)
01.04.2023 06:15 7,4 C 90 % 1004,4 hPa 0,0 l/m 1,7 km/h (1 Bft) O 93 5,9 C 7,4 C 4,8 km/h (1 Bft)
01.04.2023 06:10 7,4 C 90 % 1004,4 hPa 0,0 l/m 2,4 km/h (1 Bft) O 99 5,9 C 7,4 C 4,8 km/h (1 Bft)
01.04.2023 06:05 7,3 C 90 % 1004,4 hPa 0,0 l/m 2,4 km/h (1 Bft) O-NO 65 5,8 C 7,3 C 6,4 km/h (2 Bft)
01.04.2023 06:00 7,3 C 90 % 1004,3 hPa 0,0 l/m 2,0 km/h (1 Bft) O-SO 107 5,8 C 7,3 C 6,4 km/h (2 Bft)
01.04.2023 05:55 7,3 C 91 % 1004,3 hPa 0,0 l/m 1,2 km/h (1 Bft) NO 35 5,9 C 7,3 C 8,0 km/h (2 Bft)
01.04.2023 05:50 7,3 C 91 % 1004,2 hPa 0,0 l/m 1,7 km/h (1 Bft) O-NO 72 5,9 C 7,3 C 6,4 km/h (2 Bft)
01.04.2023 05:45 7,2 C 90 % 1004,3 hPa 0,0 l/m 2,4 km/h (1 Bft) N-NO 17 5,7 C 7,2 C 6,4 km/h (2 Bft)
01.04.2023 05:40 7,2 C 91 % 1004,3 hPa 0,0 l/m 2,0 km/h (1 Bft) SO 137 5,8 C 7,2 C 8,0 km/h (2 Bft)
01.04.2023 05:35 7,2 C 91 % 1004,2 hPa 0,0 l/m 1,0 km/h (0 Bft) O-SO 120 5,8 C 7,2 C 4,8 km/h (1 Bft)
01.04.2023 05:30 7,2 C 91 % 1004,1 hPa 0,0 l/m 0,3 km/h (0 Bft) O 87 5,8 C 7,2 C 3,2 km/h (1 Bft)
01.04.2023 05:25 7,3 C 91 % 1004,1 hPa 0,0 l/m 1,1 km/h (1 Bft) NO 55 5,9 C 7,3 C 9,7 km/h (2 Bft)
01.04.2023 05:20 7,2 C 92 % 1004,0 hPa 0,0 l/m 1,2 km/h (1 Bft) S 183 6,0 C 7,2 C 4,8 km/h (1 Bft)
01.04.2023 05:15 7,2 C 91 % 1004,0 hPa 0,0 l/m 0,8 km/h (0 Bft) S 169 5,8 C 7,2 C 4,8 km/h (1 Bft)
01.04.2023 05:10 7,2 C 91 % 1004,0 hPa 0,0 l/m 1,9 km/h (1 Bft) O 98 5,8 C 7,2 C 9,7 km/h (2 Bft)
01.04.2023 05:05 7,1 C 92 % 1004,0 hPa 0,0 l/m 2,4 km/h (1 Bft) SO 131 5,9 C 7,1 C 11,3 km/h (2 Bft)
01.04.2023 05:00 7,1 C 92 % 1004,0 hPa 0,0 l/m 2,0 km/h (1 Bft) S 177 5,9 C 7,1 C 4,8 km/h (1 Bft)
01.04.2023 04:55 7,1 C 93 % 1004,0 hPa 0,0 l/m 2,7 km/h (1 Bft) O-NO 78 6,0 C 7,1 C 4,8 km/h (1 Bft)
01.04.2023 04:50 7,1 C 93 % 1003,9 hPa 0,0 l/m 1,2 km/h (1 Bft) S-SO 165 6,0 C 7,1 C 4,8 km/h (1 Bft)
01.04.2023 04:45 7,1 C 93 % 1003,9 hPa 0,0 l/m 0,7 km/h (0 Bft) O-SO 117 6,0 C 7,1 C 3,2 km/h (1 Bft)
01.04.2023 04:40 7,1 C 93 % 1003,8 hPa 0,0 l/m 1,0 km/h (0 Bft) O 100 6,0 C 7,1 C 4,8 km/h (1 Bft)
01.04.2023 04:35 7,0 C 92 % 1003,9 hPa 0,0 l/m 2,9 km/h (1 Bft) SO 145 5,8 C 7,0 C 14,5 km/h (3 Bft)
01.04.2023 04:30 7,0 C 94 % 1003,9 hPa 0,0 l/m 2,5 km/h (1 Bft) O-NO 68 6,1 C 7,0 C 9,7 km/h (2 Bft)
01.04.2023 04:25 6,9 C 94 % 1003,9 hPa 0,0 l/m 1,0 km/h (0 Bft) O-SO 114 6,0 C 6,9 C 4,8 km/h (1 Bft)
01.04.2023 04:20 6,8 C 95 % 1003,8 hPa 0,0 l/m 3,3 km/h (1 Bft) O-SO 108 6,1 C 6,8 C 6,4 km/h (2 Bft)
01.04.2023 04:15 6,8 C 95 % 1004,0 hPa 0,0 l/m 1,7 km/h (1 Bft) O-SO 108 6,1 C 6,8 C 4,8 km/h (1 Bft)
01.04.2023 04:10 6,8 C 96 % 1003,7 hPa 0,2 l/m 1,1 km/h (1 Bft) O-SO 106 6,2 C 6,8 C 3,2 km/h (1 Bft)
01.04.2023 04:05 6,8 C 96 % 1003,8 hPa 0,0 l/m 2,3 km/h (1 Bft) S-SO 166 6,2 C 6,8 C 6,4 km/h (2 Bft)
01.04.2023 04:00 6,8 C 96 % 1003,8 hPa 0,0 l/m 2,4 km/h (1 Bft) N-NO 17 6,2 C 6,8 C 6,4 km/h (2 Bft)
01.04.2023 03:55 6,8 C 96 % 1003,7 hPa 0,0 l/m 0,0 km/h (0 Bft) SO 124 6,2 C 6,8 C 0,0 km/h (0 Bft)
01.04.2023 03:50 6,8 C 96 % 1003,7 hPa 0,0 l/m 0,0 km/h (0 Bft) O-SO 114 6,2 C 6,8 C 0,0 km/h (0 Bft)
01.04.2023 03:45 6,8 C 96 % 1003,8 hPa 0,0 l/m 0,0 km/h (0 Bft) O-SO 108 6,2 C 6,8 C 0,0 km/h (0 Bft)
01.04.2023 03:40 6,8 C 96 % 1003,9 hPa 0,0 l/m 1,7 km/h (1 Bft) O-SO 108 6,2 C 6,8 C 4,8 km/h (1 Bft)
01.04.2023 03:35 6,8 C 96 % 1003,8 hPa 0,0 l/m 1,8 km/h (1 Bft) S-SW 193 6,2 C 6,8 C 8,0 km/h (2 Bft)
01.04.2023 03:30 6,8 C 96 % 1003,8 hPa 0,0 l/m 2,4 km/h (1 Bft) O-SO 110 6,2 C 6,8 C 6,4 km/h (2 Bft)
_ Min-Zeit 19:50 11:35 16:10 - 14:40 - - 09:55 19:50 14:40
Minimum _ 6,8 C 78 % 1001,5 hPa - 0,0 km/h (0 Bft) - - 5,5 C 6,8 C 0,0 km/h (0 Bft)
_ Max-Zeit 15:00 12:00 12:00 12:05 16:25 - - 15:10 15:00 16:25
Maximum _ 11,7 C 99 % 1006,8 hPa 1,0 l/m 8,0 km/h
N-NW (2 Bft)
- - 10,7 C 11,7 C 19,3 km/h
O-NO (3 Bft)
Durchschnitt _ 8,1 C 94 % 1004,2 hPa #4,2 l/m 1,7 km/h (1 Bft) O-NO - 7,1 C 8,1 C 5,5 km/h (2 Bft)